Wolf Run, OH

12:52 PM EDT on August 31, 2015 (GMT -0400)
Kings Creek Bowl | | Change Station
CLOSE
Current Station
Personal Weather Station
Location: Weirton, WV
Elevation: 814 ft
Nearby Weather Stations

Elev 814 ft 40.43 °N, 80.60 °W | Updated 1 second ago

Clear
Clear
88.2 °F
Feels Like 95 °F
N
6.9
Wind Variable Wind from North
Gusts 6.9 mph

Today
High -- | Low -- °F
--% Chance of Precip.
Yesterday
High -- | Low -- °F
Precip. -- in
6:49 AM 7:57 PM
Waning Gibbous, 94% visible
Pressure 30.14 in
Visibility 10.0 miles
Clouds Scattered Clouds 2500 ft
Mostly Cloudy 3500 ft
Heat Index 95 °F
Dew Point 72 °F
Humidity 58%
Rainfall 0.00 in
Snow Depth Not available.
UV 5 out of 12
Pollen 10.50 out of 12
Air Quality Not available.
Flu Activity Not available.
SPECI KHLG 311619Z 24004KT 10SM SCT025 BKN035 28/20 A3014 RMK AO2 T02780200
Pressure 30.14 in
Visibility 10.0 miles
Clouds Scattered Clouds 2500 ft
Mostly Cloudy 3500 ft
Heat Index 95 °F
Dew Point 72 °F
Humidity 58%
Rainfall 0.00 in
Snow Depth Not available.
UV 5 out of 12
Pollen 10.50 out of 12
Air Quality Not available.
Flu Activity Not available.
SPECI KHLG 311619Z 24004KT 10SM SCT025 BKN035 28/20 A3014 RMK AO2 T02780200

10-Day Weather Forecast

×

Almanac

Astronomy

Aug. 31, 2015 Rise Set
Actual Time
Civil Twilight
Nautical Twilight
Astronomical Twilight
Moon
Length of Visible Light
Length of Day
Tomorrow will be .
, % of the Moon is Illuminated

Today's Extremes

State Highs State Lows

Community

WunderPhotos

Upload Photos

1,851,307 photos uploaded!

WunderBlogs® & News

Nearby

Air Quality

  Air Quality AQ Index Pollutant
Not available.

Snow Depth

Station Depth Elevation

Earthquake Activity

City Distance Mag. Time & Date
Minimum magnitude displayed is 2.5.

Coastal Water Temperatures

Place Temperature

Stations

Nearby Weather Stations

Station Location Temp. Windchill Dew Point Humidity Wind Precip. Elev Updated Type